Port Alberni, British Columbia

Past 24 Hour Conditions

Date / Time
(PDT)
Conditions Temp
(°F)
Humidity
(%)
Dew Point
(°F)
Wind
(mph)
Pressure
(inches)
Visibility
(miles)
31 August 2015
6:00 N/A 56 94 54 calm 29.8 N/A
5:00 N/A 55 93 54 calm 29.8 N/A
4:00 N/A 55 93 53 WSW 2 29.8 N/A
3:00 N/A 55 94 53 WNW 2 29.8 N/A
2:00 N/A 56 93 53 WNW 2 29.8 N/A
1:00 N/A 56 93 54 calm 29.8 N/A
00:00 N/A 56 92 54 ENE 3 29.8 N/A
30 August 2015
23:00 N/A 55 91 52 ESE 8 29.8 N/A
22:00 N/A 55 91 52 ESE 9 29.8 N/A
21:00 N/A 55 92 53 ESE 6 29.8 N/A
20:00 N/A 56 83 51 SSE 4 29.9 N/A
19:00 N/A 61 67 50 SSE 4 29.8 N/A
18:00 N/A 63 67 51 SSE 4 29.9 N/A
17:00 N/A 63 68 53 SE 2 29.9 N/A
16:00 N/A 64   67 53 calm 29.9 N/A
15:00 N/A 63 74 55 SSE 9 29.9 N/A
14:00 N/A 64   67 53 SE 6 29.9 N/A
13:00 N/A 61 79 54 E 5 29.8 N/A
12:00 N/A 59 87 55 NNE 4 29.8 N/A
11:00 N/A 59 85 55 ESE 5 29.8 N/A
10:00 N/A 59 86 55 ESE 4 29.8 N/A
9:00 N/A 56 92 53 calm 29.8 N/A
8:00 N/A 55 93 53 ESE 4 29.8 N/A
7:00 N/A 53   94 52 calm 29.8 N/A
6:00 N/A 53   94 51 calm 29.7 N/A
N/A Not available
↑ Highest temperature
↓ Lowest temperature

If you require additional historical weather information, please visit Climate Data Online.

What we are doing

Date modified: